Airfield :
LOGIN :

Register | Disclaimer

   EN    FR    IT 

 










Legend :    VFR   Marginal VFR   IFR   Intensive IFR   Very Intensive IFR
Visi :
Ceiling :
>= 8 km
>= 3000ft
5 to 8 km
1000 to 3000 ft
1500m to 5 km
500 to 1000 ft
800 to 1500m
200 to 500 ft
< 800m
< 200 ft
Symbols :   Thunderstorms  Fog  Heavy snow  Heavy precipitations  Wind > 20 kt
SIGMETs :     Misc.  Thunderstorms  Icing  Turbulence  Mountain Waves  Volcanic Ashes







- Airport Elevation : 392 ft
- IATA code : CDG
- Download approach charts


LFPG - Paris-Aeroport Charles De Gaulle

CURRENT METAR :
  • 181730Z 26008KT 9999 FEW039 08/05 Q1006 BECMG 27015G25KT

EXPIRED METARs :
  • 181700Z 25010KT 9999 FEW033 08/05 Q1006 BECMG 27015G25KT
  • 181630Z 26010KT 9999 FEW036 SCT260 09/05 Q1006 NOSIG
  • 181600Z 28013KT CAVOK 09/04 Q1006 NOSIG
  • 181530Z 28017KT 9999 FEW033 SCT056 10/05 Q1006 NOSIG
  • 181500Z 28015KT 9999 FEW030 BKN052 10/06 Q1006 NOSIG

TAF TAF LFPG
Valid from the 18 at 18:00 until the 20 at 00:00 UTC


181700Z 1818/1924 25010KT 9999 SCT033
PROB40
TEMPO 1818/1821 SCT015TCU
TEMPO 1818/1824 27015G25KT
BECMG 1906/1908 BKN013
TEMPO 1908/1912 24010G20KT 4000 SHRA SCT012CB BKN013
PROB30
TEMPO 1908/1912 2000 SHRASN
BECMG 1912/1914 SCT020
BECMG 1922/1924 SCT012 BKN025 TX08/1818Z TN02/1905Z
ATIS : +33 1 48 62 10 92
No reported NOTAMs for that airfield.



MET'MAP, your aeronautical weather chart ! - Copyright ORBIFLY December 2007 - Disclaimer

ORBIFLY MET'MAP TEAM :

Programming & Development : Alexandra Zaïnal
Concept & Development : Baudouin d'Aumeries
Co-Development & Prog : Marc-Olivier Méhu
Technical & hardware support : Manuel Goepfert

Contact : metmap@orbifly.com




SOURCES & CREDITS :

   NOAA